Time;durP1;ratioP1;P1;durP2;ratioP2;P2;SDS_P1;SDS_P2;PMS_P1;PMS_P2;Temp;Humidity;BMP_temperature;BMP_pressure;BME280_temperature;BME280_humidity;BME280_pressure;Samples;Min_cycle;Max_cycle;Signal;HPM_P1;HPM_P2
2023/06/02 00:00:00;;;;;;;77.57;2.00;;;21.10;30.40;;;;;;5030934;28;20849;-72
2023/06/02 00:02:29;;;;;;;78.30;2.37;;;21.30;29.30;;;;;;5031573;28;20410;-72
2023/06/02 00:04:59;;;;;;;77.53;1.90;;;21.10;29.90;;;;;;5030851;28;20418;-72
2023/06/02 00:07:27;;;;;;;77.87;2.10;;;20.90;30.50;;;;;;5030776;28;20442;-72
2023/06/02 00:09:53;;;;;;;78.07;2.30;;;20.70;31.00;;;;;;5030607;28;20493;-72
2023/06/02 00:12:19;;;;;;;78.57;2.10;;;20.60;31.50;;;;;;5031488;28;20441;-73
2023/06/02 00:14:47;;;;;;;78.17;2.30;;;20.50;31.40;;;;;;5030339;28;20972;-72
2023/06/02 00:17:14;;;;;;;78.47;2.10;;;20.50;30.60;;;;;;5030989;28;20513;-72
2023/06/02 00:19:42;;;;;;;78.63;2.40;;;20.60;31.00;;;;;;5031276;28;20982;-72
2023/06/02 00:22:15;;;;;;;78.57;2.30;;;20.50;31.50;;;;;;5030519;28;20465;-72
2023/06/02 00:24:41;;;;;;;78.77;2.20;;;20.60;30.50;;;;;;5030377;28;20498;-72
2023/06/02 00:27:07;;;;;;;78.97;2.50;;;20.40;32.00;;;;;;5030879;28;20910;-73
2023/06/02 00:29:33;;;;;;;78.43;2.00;;;20.50;30.00;;;;;;5033998;28;20494;-71
2023/06/02 00:31:58;;;;;;;78.37;2.10;;;20.70;31.30;;;;;;5034367;28;20176;-70
2023/06/02 00:34:24;;;;;;;79.80;2.30;;;20.60;31.80;;;;;;5033712;28;20200;-73
2023/06/02 00:36:50;;;;;;;79.40;2.27;;;20.40;31.10;;;;;;5034587;28;20184;-73
2023/06/02 00:39:15;;;;;;;78.80;2.20;;;20.30;31.60;;;;;;5034147;28;20637;-73
2023/06/02 00:41:41;;;;;;;79.47;2.40;;;20.30;31.40;;;;;;5033907;28;20266;-72
2023/06/02 00:44:07;;;;;;;79.07;2.60;;;20.10;31.30;;;;;;5033495;28;20541;-71
2023/06/02 00:46:32;;;;;;;79.03;2.60;;;20.10;33.00;;;;;;5034136;28;20190;-73
2023/06/02 00:48:58;;;;;;;79.27;2.10;;;20.20;31.20;;;;;;5033926;28;20239;-72
2023/06/02 00:51:24;;;;;;;78.90;2.40;;;20.20;31.80;;;;;;5034359;28;20621;-72
2023/06/02 00:53:50;;;;;;;78.87;2.20;;;20.10;32.40;;;;;;5032964;28;20174;-72
2023/06/02 00:56:16;;;;;;;78.77;2.00;;;20.00;31.20;;;;;;5034327;28;20175;-72
2023/06/02 00:58:45;;;;;;;78.80;2.20;;;19.80;32.40;;;;;;5033975;28;20507;-73
2023/06/02 01:01:18;;;;;;;80.07;3.17;;;19.80;32.20;;;;;;5033954;28;20398;-72
2023/06/02 01:03:45;;;;;;;79.17;2.63;;;19.80;32.40;;;;;;5032890;28;20437;-73
2023/06/02 01:06:15;;;;;;;79.07;2.13;;;19.70;32.50;;;;;;5032542;28;20418;-73
2023/06/02 01:08:42;;;;;;;80.30;3.00;;;19.70;33.00;;;;;;5048762;28;20431;-73
2023/06/02 01:11:08;;;;;;;79.17;2.37;;;19.70;33.00;;;;;;5033948;28;20449;-72
2023/06/02 01:13:34;;;;;;;79.67;2.40;;;19.90;31.50;;;;;;5032956;28;20456;-71
2023/06/02 01:15:59;;;;;;;79.60;2.53;;;19.80;32.70;;;;;;5033852;28;20921;-73
2023/06/02 01:18:29;;;;;;;81.50;2.70;;;19.80;33.10;;;;;;5034015;28;20195;-74
2023/06/02 01:21:01;;;;;;;80.50;2.50;;;19.70;33.20;;;;;;5033559;28;20544;-73
2023/06/02 01:23:36;;;;;;;79.87;2.60;;;19.60;32.20;;;;;;5033158;28;20398;-72
2023/06/02 01:26:05;;;;;;;87.00;3.20;;;19.60;33.00;;;;;;5033665;28;20468;-73
2023/06/02 01:28:31;;;;;;;79.97;2.70;;;19.50;33.60;;;;;;5033548;28;20843;-72
2023/06/02 01:31:15;;;;;;;113.77;2.73;;;19.40;32.60;;;;;;5033392;28;20483;-72
2023/06/02 01:33:58;;;;;;;80.20;2.30;;;19.30;33.40;;;;;;5032499;28;20952;-72
2023/06/02 01:36:28;;;;;;;80.67;2.60;;;19.30;33.70;;;;;;5033211;28;20398;-72
2023/06/02 01:38:56;;;;;;;79.93;2.30;;;19.20;33.80;;;;;;5032675;28;20435;-72
2023/06/02 01:41:27;;;;;;;80.30;2.60;;;19.20;33.60;;;;;;5032898;28;20417;-72
2023/06/02 01:43:55;;;;;;;80.87;2.90;;;19.10;34.90;;;;;;5032047;28;20408;-71
2023/06/02 01:46:21;;;;;;;79.60;2.10;;;19.00;34.50;;;;;;5033269;28;20839;-71
2023/06/02 01:48:46;;;;;;;81.10;2.73;;;19.00;34.30;;;;;;5032977;28;20429;-71
2023/06/02 01:51:12;;;;;;;79.60;2.00;;;19.00;34.90;;;;;;5033153;28;20768;-72
2023/06/02 01:53:37;;;;;;;79.90;2.37;;;19.10;34.30;;;;;;5032303;28;20178;-72
2023/06/02 01:56:03;;;;;;;79.93;2.50;;;19.00;34.40;;;;;;5032823;28;20611;-72
2023/06/02 01:58:29;;;;;;;80.00;2.20;;;18.90;34.50;;;;;;5032653;28;20195;-71
2023/06/02 02:00:54;;;;;;;80.27;2.60;;;18.80;34.70;;;;;;5032863;28;20177;-73
2023/06/02 02:03:22;;;;;;;80.13;2.30;;;19.00;33.50;;;;;;5032181;28;20180;-72
2023/06/02 02:05:47;;;;;;;80.07;2.37;;;19.10;34.10;;;;;;5032672;28;20174;-72
2023/06/02 02:08:13;;;;;;;80.20;2.33;;;19.00;34.20;;;;;;5032355;28;20433;-72
2023/06/02 02:10:39;;;;;;;80.50;2.30;;;18.90;35.20;;;;;;5032584;28;20202;-72
2023/06/02 02:13:05;;;;;;;81.10;2.80;;;19.10;34.90;;;;;;5031703;28;20173;-72
2023/06/02 02:15:31;;;;;;;80.77;2.53;;;19.00;33.60;;;;;;5032685;28;20414;-72
2023/06/02 02:17:59;;;;;;;80.87;2.60;;;18.80;35.20;;;;;;5047606;28;20204;-72
2023/06/02 02:20:26;;;;;;;80.53;2.30;;;18.80;35.20;;;;;;5031402;28;20819;-73
2023/06/02 02:22:51;;;;;;;81.03;2.43;;;18.80;34.70;;;;;;5031751;28;20413;-71
2023/06/02 02:25:17;;;;;;;81.30;2.30;;;18.70;35.30;;;;;;5032290;28;20421;-72
2023/06/02 02:27:42;;;;;;;80.87;2.30;;;18.70;34.70;;;;;;5030595;28;20707;-72
2023/06/02 02:30:08;;;;;;;80.67;2.17;;;18.50;35.80;;;;;;5032110;28;20218;-73
2023/06/02 02:32:38;;;;;;;80.70;2.00;;;18.50;35.60;;;;;;5030389;28;20205;-70
2023/06/02 02:35:04;;;;;;;81.47;2.67;;;18.50;35.70;;;;;;5032071;28;20407;-72
2023/06/02 02:37:30;;;;;;;81.53;2.60;;;18.60;35.20;;;;;;5032137;28;20403;-70
2023/06/02 02:39:56;;;;;;;83.63;2.47;;;18.50;35.40;;;;;;5031945;28;20477;-71
2023/06/02 02:42:21;;;;;;;81.47;2.20;;;18.50;36.10;;;;;;5031899;28;20419;-72
2023/06/02 02:44:47;;;;;;;82.20;2.67;;;18.40;35.90;;;;;;5031258;28;20173;-72
2023/06/02 02:47:12;;;;;;;81.67;2.37;;;18.30;35.70;;;;;;5032022;28;20583;-72
2023/06/02 02:49:38;;;;;;;81.57;2.30;;;18.20;35.50;;;;;;5031951;28;20196;-70
2023/06/02 02:52:04;;;;;;;82.60;2.57;;;18.30;35.20;;;;;;5031930;28;20177;-72
2023/06/02 02:54:30;;;;;;;82.13;2.53;;;18.30;36.10;;;;;;5031362;28;20766;-70
2023/06/02 02:56:55;;;;;;;81.73;2.20;;;18.20;35.40;;;;;;5031514;28;20220;-72
2023/06/02 02:59:21;;;;;;;81.70;2.20;;;18.10;36.40;;;;;;5031713;28;20664;-72
2023/06/02 03:01:47;;;;;;;81.90;2.37;;;18.10;35.70;;;;;;5031818;28;20193;-72
2023/06/02 03:04:18;;;;;;;84.17;3.33;;;18.10;35.80;;;;;;5031405;28;20176;-72
2023/06/02 03:06:45;;;;;;;81.83;2.10;;;18.10;36.30;;;;;;5032155;28;20456;-72
2023/06/02 03:09:11;;;;;;;82.37;2.53;;;18.10;35.90;;;;;;5031759;28;20452;-72
2023/06/02 03:11:37;;;;;;;82.17;2.50;;;18.00;36.30;;;;;;5031689;28;20438;-72
2023/06/02 03:14:02;;;;;;;82.67;2.47;;;17.90;36.80;;;;;;5031160;28;20461;-72
2023/06/02 03:16:28;;;;;;;81.93;2.17;;;17.90;37.00;;;;;;5031919;28;20184;-72
2023/06/02 03:18:55;;;;;;;81.83;2.20;;;18.00;37.40;;;;;;5031491;28;20768;-72
2023/06/02 03:21:22;;;;;;;82.03;2.20;;;17.90;37.20;;;;;;5031655;28;20457;-72
2023/06/02 03:23:49;;;;;;;82.57;2.20;;;17.80;36.90;;;;;;5030915;28;20816;-72
2023/06/02 03:26:15;;;;;;;82.30;2.43;;;17.80;37.40;;;;;;5031540;28;20478;-72
2023/06/02 03:28:42;;;;;;;82.47;2.47;;;17.70;37.10;;;;;;5031341;28;20465;-70
2023/06/02 03:31:08;;;;;;;82.70;2.57;;;17.60;37.10;;;;;;5031329;28;20969;-72
2023/06/02 03:33:34;;;;;;;82.73;2.27;;;17.50;37.60;;;;;;5030887;28;20408;-73
2023/06/02 03:36:00;;;;;;;82.30;2.23;;;17.60;38.10;;;;;;5031096;28;20504;-72
2023/06/02 03:38:25;;;;;;;83.07;2.67;;;17.80;37.00;;;;;;5031254;28;20204;-72
2023/06/02 03:40:51;;;;;;;83.30;2.63;;;17.90;36.80;;;;;;5031249;28;20180;-72
2023/06/02 03:43:16;;;;;;;83.00;2.60;;;17.90;36.30;;;;;;5030821;28;20206;-73
2023/06/02 03:45:43;;;;;;;82.50;2.23;;;17.80;37.80;;;;;;5031255;28;20642;-72
2023/06/02 03:48:09;;;;;;;82.67;2.17;;;17.60;38.20;;;;;;5031052;28;20203;-73
2023/06/02 03:50:36;;;;;;;82.30;2.10;;;17.70;37.50;;;;;;5017452;28;20460;-73
2023/06/02 03:53:02;;;;;;;83.00;2.60;;;17.80;37.00;;;;;;5010417;28;20636;-72
2023/06/02 03:55:27;;;;;;;83.30;2.83;;;17.80;36.80;;;;;;5011261;28;20452;-72
2023/06/02 03:57:53;;;;;;;82.77;2.30;;;17.90;37.20;;;;;;5011151;28;20222;-72
2023/06/02 04:00:19;;;;;;;84.30;2.80;;;17.80;37.60;;;;;;5011142;28;20180;-73
2023/06/02 04:02:44;;;;;;;83.23;2.83;;;17.80;37.90;;;;;;5011277;28;20173;-72
2023/06/02 04:05:11;;;;;;;82.40;2.27;;;17.70;37.50;;;;;;5015041;28;20252;-71
2023/06/02 04:07:37;;;;;;;82.83;2.27;;;17.90;37.40;;;;;;5014694;28;20176;-71
2023/06/02 04:10:05;;;;;;;82.67;2.47;;;17.80;37.00;;;;;;5014671;28;20477;-71
2023/06/02 04:12:30;;;;;;;82.67;2.37;;;18.50;38.30;;;;;;5014290;28;20796;-71
2023/06/02 04:14:57;;;;;;;83.23;2.50;;;17.90;36.70;;;;;;5014525;28;20413;-70
2023/06/02 04:17:22;;;;;;;82.73;2.40;;;17.80;37.50;;;;;;5014475;28;20166;-71
2023/06/02 04:19:48;;;;;;;82.77;2.60;;;17.80;36.40;;;;;;5013421;28;20462;-70
2023/06/02 04:22:14;;;;;;;82.50;2.50;;;18.00;37.30;;;;;;5013344;28;20181;-71
2023/06/02 04:24:41;;;;;;;82.57;2.30;;;17.90;36.70;;;;;;5013702;28;20919;-71
2023/06/02 04:27:07;;;;;;;82.90;2.83;;;18.00;37.40;;;;;;5014641;28;20167;-71
2023/06/02 04:29:33;;;;;;;82.40;2.30;;;18.00;38.10;;;;;;5014755;28;20506;-71
2023/06/02 04:32:01;;;;;;;82.70;2.70;;;18.00;38.10;;;;;;5014598;28;20452;-71
2023/06/02 04:34:26;;;;;;;82.47;2.53;;;18.20;35.80;;;;;;5013703;28;20427;-71
2023/06/02 04:36:52;;;;;;;82.23;2.10;;;18.40;35.90;;;;;;5014129;28;20412;-71
2023/06/02 04:39:19;;;;;;;82.53;2.60;;;18.30;36.60;;;;;;5014075;28;20214;-71
2023/06/02 04:41:46;;;;;;;82.07;2.03;;;18.50;36.10;;;;;;5013252;28;20182;-71
2023/06/02 04:44:11;;;;;;;82.20;2.23;;;18.60;35.90;;;;;;5013764;28;20415;-70
2023/06/02 04:46:37;;;;;;;82.57;2.67;;;18.50;35.90;;;;;;5014182;28;20420;-71
2023/06/02 04:49:08;;;;;;;82.97;2.47;;;18.60;35.70;;;;;;5013858;28;20193;-70
2023/06/02 04:51:34;;;;;;;83.70;2.57;;;18.70;35.20;;;;;;5014032;28;20468;-71
2023/06/02 04:54:00;;;;;;;83.60;2.90;;;18.60;36.40;;;;;;5029467;28;20469;-71
2023/06/02 04:56:27;;;;;;;82.87;2.70;;;18.70;35.80;;;;;;5033898;28;20410;-71
2023/06/02 04:58:53;;;;;;;82.77;2.70;;;18.80;36.10;;;;;;5033638;28;20594;-71
2023/06/02 05:01:19;;;;;;;82.70;2.40;;;19.00;35.70;;;;;;5032445;28;20457;-71
2023/06/02 05:03:44;;;;;;;85.27;3.17;;;18.90;35.60;;;;;;5033032;28;20227;-71
2023/06/02 05:06:10;;;;;;;82.30;2.30;;;19.00;35.00;;;;;;5048969;28;20423;-71
2023/06/02 05:08:36;;;;;;;83.03;2.93;;;19.20;33.20;;;;;;5033421;28;20660;-71
2023/06/02 05:11:02;;;;;;;83.80;2.60;;;19.40;30.50;;;;;;5033531;28;20208;-71
2023/06/02 05:13:28;;;;;;;82.47;2.47;;;19.50;32.50;;;;;;5033031;28;20250;-71
2023/06/02 05:15:57;;;;;;;82.33;2.23;;;19.40;33.50;;;;;;5032428;28;20782;-70
2023/06/02 05:18:23;;;;;;;82.67;2.40;;;19.40;34.40;;;;;;5033408;28;20451;-71
2023/06/02 05:20:50;;;;;;;82.10;2.10;;;19.40;29.70;;;;;;5033416;28;20452;-71
2023/06/02 05:23:16;;;;;;;82.60;2.50;;;19.00;30.90;;;;;;5032773;28;20169;-71
2023/06/02 05:25:42;;;;;;;82.37;2.33;;;18.80;31.80;;;;;;5032088;28;20423;-71
2023/06/02 05:28:08;;;;;;;83.03;2.87;;;18.50;31.70;;;;;;5033195;28;21331;-71
2023/06/02 05:30:35;;;;;;;82.17;2.20;;;18.50;32.60;;;;;;5033164;28;20985;-71
2023/06/02 05:33:01;;;;;;;82.33;2.37;;;19.20;32.10;;;;;;5032444;28;20201;-71
2023/06/02 05:35:26;;;;;;;83.37;2.90;;;19.30;32.10;;;;;;5033045;28;20447;-71
2023/06/02 05:37:52;;;;;;;81.90;2.30;;;19.30;29.00;;;;;;5034323;22;20754;-71
2023/06/02 05:40:17;;;;;;;82.30;2.40;;;18.50;30.50;;;;;;5021022;28;20190;-70
2023/06/02 05:42:43;;;;;;;82.77;2.63;;;19.00;32.10;;;;;;5024345;28;20172;-71
2023/06/02 05:45:09;;;;;;;90.83;2.40;;;19.50;32.10;;;;;;5031651;28;20336;-71
2023/06/02 05:47:34;;;;;;;83.10;3.10;;;19.60;32.10;;;;;;5032852;28;20178;-71
2023/06/02 05:50:00;;;;;;;83.30;2.73;;;19.90;31.30;;;;;;5032819;28;20955;-71
2023/06/02 05:52:26;;;;;;;81.90;2.30;;;20.00;30.60;;;;;;5032894;28;20181;-71
2023/06/02 05:54:51;;;;;;;83.67;2.30;;;20.00;28.50;;;;;;5032161;28;20546;-72
2023/06/02 05:57:17;;;;;;;82.73;2.90;;;20.00;29.80;;;;;;5033156;28;20221;-72
2023/06/02 05:59:43;;;;;;;82.57;2.60;;;20.20;29.60;;;;;;5033001;28;20198;-72
2023/06/02 06:02:09;;;;;;;82.47;2.67;;;20.20;28.80;;;;;;5033335;28;20925;-72
2023/06/02 06:04:34;;;;;;;82.20;2.50;;;20.00;29.30;;;;;;5032392;28;20837;-69
2023/06/02 06:07:00;;;;;;;81.90;2.30;;;19.80;29.00;;;;;;5032437;28;20239;-69
2023/06/02 06:09:26;;;;;;;81.87;2.30;;;19.60;29.40;;;;;;5032607;28;20207;-69
2023/06/02 06:11:52;;;;;;;81.97;2.40;;;19.70;29.40;;;;;;5032562;28;20409;-69
2023/06/02 06:14:17;;;;;;;82.00;2.33;;;19.60;29.60;;;;;;5030644;28;20270;-70
2023/06/02 06:16:43;;;;;;;82.00;2.53;;;19.40;29.80;;;;;;5032192;28;20194;-73
2023/06/02 06:19:11;;;;;;;81.67;2.10;;;19.80;29.60;;;;;;5032359;28;20233;-69
2023/06/02 06:21:37;;;;;;;81.90;2.37;;;20.10;28.80;;;;;;5032439;28;20663;-69
2023/06/02 06:24:06;;;;;;;81.87;2.07;;;19.80;28.50;;;;;;5031812;28;20428;-69
2023/06/02 06:26:32;;;;;;;81.47;2.10;;;20.10;29.10;;;;;;5032116;28;20795;-69
2023/06/02 06:28:58;;;;;;;83.00;2.63;;;20.20;29.50;;;;;;5032152;28;20438;-69
2023/06/02 06:31:24;;;;;;;83.10;2.83;;;20.40;28.50;;;;;;5032099;28;20501;-71
2023/06/02 06:33:49;;;;;;;81.70;2.17;;;20.40;28.90;;;;;;5031418;28;20168;-69
2023/06/02 06:36:15;;;;;;;83.00;3.03;;;20.30;29.50;;;;;;5031854;28;20774;-68
2023/06/02 06:38:41;;;;;;;82.67;2.70;;;20.40;28.20;;;;;;5031916;28;20290;-68
2023/06/02 06:41:07;;;;;;;81.90;2.80;;;20.50;28.00;;;;;;5032000;28;20661;-68
2023/06/02 06:43:32;;;;;;;81.43;2.23;;;20.20;29.00;;;;;;5031263;28;20406;-68
2023/06/02 06:45:59;;;;;;;81.53;2.10;;;19.90;29.20;;;;;;5031679;28;20173;-69
2023/06/02 06:48:25;;;;;;;82.60;2.83;;;20.20;29.90;;;;;;5031942;28;20235;-68
2023/06/02 06:50:50;;;;;;;81.40;2.33;;;20.20;30.00;;;;;;5031625;28;20846;-69
2023/06/02 06:53:16;;;;;;;81.60;2.63;;;19.60;29.80;;;;;;5030930;28;20176;-69
2023/06/02 06:55:42;;;;;;;81.17;2.17;;;19.20;30.80;;;;;;5030271;28;20250;-69
2023/06/02 06:58:08;;;;;;;81.87;2.57;;;19.70;30.40;;;;;;5030650;28;20474;-69
2023/06/02 07:00:33;;;;;;;81.80;2.60;;;19.90;30.00;;;;;;5030481;28;20691;-71
2023/06/02 07:02:59;;;;;;;81.27;2.50;;;20.00;29.40;;;;;;5030479;28;20250;-68
2023/06/02 07:05:25;;;;;;;81.47;2.60;;;20.00;29.80;;;;;;5031555;28;20279;-68
2023/06/02 07:07:51;;;;;;;81.33;2.37;;;20.00;29.90;;;;;;5031590;28;20605;-68
2023/06/02 07:10:17;;;;;;;81.53;2.80;;;20.20;30.10;;;;;;5031559;28;20447;-69
2023/06/02 07:12:43;;;;;;;81.67;2.63;;;20.50;30.00;;;;;;5031359;28;20227;-70
2023/06/02 07:15:09;;;;;;;81.30;2.60;;;20.00;29.00;;;;;;5031458;28;20542;-71
2023/06/02 07:17:34;;;;;;;81.10;2.40;;;19.80;30.00;;;;;;5031479;28;20419;-71
2023/06/02 07:20:00;;;;;;;82.27;2.47;;;20.10;30.70;;;;;;5031319;28;20905;-68
2023/06/02 07:22:26;;;;;;;81.27;2.53;;;20.60;30.00;;;;;;5031464;28;20175;-68
2023/06/02 07:24:51;;;;;;;83.00;3.20;;;21.00;28.90;;;;;;5030691;28;20199;-68
2023/06/02 07:27:17;;;;;;;81.70;2.50;;;21.10;28.00;;;;;;5031513;28;20599;-70
2023/06/02 07:29:43;;;;;;;81.70;2.83;;;21.10;28.30;;;;;;5031051;28;20212;-70
2023/06/02 07:32:09;;;;;;;81.10;2.50;;;20.10;29.60;;;;;;5031550;28;20660;-70
2023/06/02 07:34:37;;;;;;;81.00;2.30;;;19.70;29.90;;;;;;5030690;28;20409;-72
2023/06/02 07:37:02;;;;;;;81.63;2.57;;;20.00;30.00;;;;;;5031590;28;20411;-69
2023/06/02 07:39:28;;;;;;;81.20;2.50;;;20.50;29.70;;;;;;5034776;28;20802;-69
2023/06/02 07:41:54;;;;;;;80.80;2.20;;;20.80;28.50;;;;;;5035425;28;20215;-69
2023/06/02 07:44:20;;;;;;;80.60;2.20;;;21.00;28.50;;;;;;5033511;28;20469;-69
2023/06/02 07:46:46;;;;;;;80.77;2.20;;;20.30;28.80;;;;;;5035441;28;20176;-72
2023/06/02 07:49:12;;;;;;;81.17;2.87;;;20.80;28.80;;;;;;5036099;28;20220;-71
2023/06/02 07:51:39;;;;;;;81.23;2.70;;;20.10;28.50;;;;;;5035864;28;20470;-72
2023/06/02 07:54:05;;;;;;;81.03;2.63;;;20.10;29.50;;;;;;5034978;28;20404;-72
2023/06/02 07:56:30;;;;;;;80.30;2.10;;;20.60;28.90;;;;;;5035819;28;20751;-73
2023/06/02 07:58:56;;;;;;;80.50;2.30;;;20.90;28.40;;;;;;5035377;28;20204;-72
2023/06/02 08:01:22;;;;;;;84.63;3.07;;;21.00;28.90;;;;;;5035241;28;20185;-72
2023/06/02 08:03:47;;;;;;;80.70;2.63;;;21.40;27.00;;;;;;5034986;28;20178;-72
2023/06/02 08:06:13;;;;;;;81.20;2.93;;;21.50;27.40;;;;;;5035945;28;20641;-72
2023/06/02 08:08:39;;;;;;;81.37;2.70;;;20.70;29.70;;;;;;5035468;28;20258;-72
2023/06/02 08:11:05;;;;;;;82.87;2.20;;;21.40;28.70;;;;;;5035375;28;20948;-72
2023/06/02 08:13:30;;;;;;;80.57;2.50;;;21.50;28.50;;;;;;5034523;28;20170;-72
2023/06/02 08:15:57;;;;;;;80.97;2.70;;;21.70;27.80;;;;;;5033720;28;20265;-72
2023/06/02 08:18:23;;;;;;;80.40;2.47;;;21.80;27.30;;;;;;5035792;28;20190;-74
2023/06/02 08:20:48;;;;;;;80.50;2.60;;;20.70;28.50;;;;;;5035130;28;20752;-72
2023/06/02 08:23:14;;;;;;;80.10;2.37;;;20.90;29.50;;;;;;5034501;28;20653;-71
2023/06/02 08:25:40;;;;;;;80.83;2.70;;;21.40;28.50;;;;;;5035059;28;20179;-73
2023/06/02 08:28:06;;;;;;;80.27;2.53;;;21.20;28.90;;;;;;5034841;28;20590;-73
2023/06/02 08:30:36;;;;;;;79.67;2.10;;;21.30;28.50;;;;;;5033489;28;20457;-72
2023/06/02 08:33:03;;;;;;;79.70;2.20;;;21.40;27.40;;;;;;5034306;28;20478;-73
2023/06/02 08:35:32;;;;;;;80.17;2.27;;;21.60;28.20;;;;;;5033342;28;20413;-72
2023/06/02 08:38:02;;;;;;;79.87;2.40;;;21.90;28.30;;;;;;5034411;28;20483;-73
2023/06/02 08:40:37;;;;;;;79.73;2.33;;;21.80;26.90;;;;;;5034649;28;20409;-72
2023/06/02 08:43:08;;;;;;;79.57;2.13;;;22.30;27.60;;;;;;5034214;28;20407;-73
2023/06/02 08:45:34;;;;;;;79.97;2.40;;;22.00;27.40;;;;;;5034457;28;20544;-73
2023/06/02 08:48:05;;;;;;;79.40;2.20;;;22.40;26.70;;;;;;5033955;28;20532;-72
2023/06/02 08:50:34;;;;;;;95.50;2.77;;;21.00;28.80;;;;;;5034985;28;20953;-71
2023/06/02 08:53:04;;;;;;;79.77;2.10;;;20.80;28.90;;;;;;5034545;28;20406;-72
2023/06/02 08:55:29;;;;;;;79.73;2.50;;;21.00;29.40;;;;;;5035050;28;20453;-72
2023/06/02 08:57:55;;;;;;;79.37;2.30;;;21.50;28.10;;;;;;5034725;28;20423;-73
2023/06/02 09:00:21;;;;;;;80.00;2.70;;;21.90;27.30;;;;;;5034824;28;20417;-71
2023/06/02 09:02:47;;;;;;;80.13;2.83;;;22.20;27.50;;;;;;5033252;28;20189;-71
2023/06/02 09:05:16;;;;;;;79.30;2.40;;;22.60;27.50;;;;;;5033908;28;20199;-71
2023/06/02 09:07:46;;;;;;;81.67;3.40;;;22.80;26.30;;;;;;5033206;28;20802;-71
2023/06/02 09:10:31;;;;;;;79.90;2.50;;;22.20;26.80;;;;;;5033679;28;20451;-71
2023/06/02 09:12:57;;;;;;;79.00;2.33;;;21.50;28.00;;;;;;5032898;28;20430;-71
2023/06/02 09:15:24;;;;;;;79.50;2.80;;;22.20;27.50;;;;;;5033631;28;20838;-71
2023/06/02 09:17:50;;;;;;;79.20;2.70;;;21.70;27.80;;;;;;5033311;28;20191;-71
2023/06/02 09:20:16;;;;;;;79.20;2.57;;;21.50;29.10;;;;;;5033531;28;20426;-71
2023/06/02 09:22:56;;;;;;;79.10;2.40;;;22.30;27.60;;;;;;5032546;28;20408;-71
2023/06/02 09:25:27;;;;;;;79.57;2.80;;;22.40;26.90;;;;;;5033597;28;20753;-71
2023/06/02 09:27:54;;;;;;;79.30;2.40;;;22.80;27.60;;;;;;5033208;28;21006;-71
2023/06/02 09:30:20;;;;;;;79.70;2.70;;;23.50;26.90;;;;;;5033427;28;20488;-71
2023/06/02 09:32:56;;;;;;;79.17;2.43;;;23.70;25.50;;;;;;5032488;28;20839;-71
2023/06/02 09:35:34;;;;;;;79.50;2.70;;;23.60;24.80;;;;;;5033102;28;20679;-70
2023/06/02 09:38:00;;;;;;;79.47;2.40;;;22.30;26.00;;;;;;5032861;28;20499;-71
2023/06/02 09:40:27;;;;;;;79.00;2.47;;;22.40;26.90;;;;;;5033219;28;20427;-70
2023/06/02 09:42:53;;;;;;;80.30;3.07;;;22.80;26.10;;;;;;5032605;28;20812;-70
2023/06/02 09:45:18;;;;;;;78.90;2.70;;;23.20;26.20;;;;;;5033002;28;20974;-70
2023/06/02 09:47:44;;;;;;;84.37;3.10;;;24.00;25.20;;;;;;5032474;28;20201;-70
2023/06/02 09:50:31;;;;;;;79.03;2.60;;;24.50;24.70;;;;;;5032997;28;20231;-70
2023/06/02 09:53:04;;;;;;;79.47;2.87;;;24.70;24.70;;;;;;5032158;28;20194;-70
2023/06/02 09:55:38;;;;;;;78.70;2.60;;;23.90;25.10;;;;;;5032888;28;20486;-70
2023/06/02 09:58:04;;;;;;;78.33;2.20;;;22.90;26.10;;;;;;5032737;28;20433;-70
2023/06/02 10:00:31;;;;;;;78.60;2.83;;;23.20;25.90;;;;;;5031867;28;20413;-70
2023/06/02 10:02:56;;;;;;;78.50;2.73;;;22.90;24.80;;;;;;5032000;28;20434;-70
2023/06/02 10:05:23;;;;;;;81.03;2.90;;;22.80;26.90;;;;;;5032822;28;21020;-70
2023/06/02 10:07:54;;;;;;;78.37;2.53;;;23.70;26.20;;;;;;5032497;28;20207;-70
2023/06/02 10:10:58;;;;;;;79.87;3.17;;;24.40;24.50;;;;;;5032685;28;20514;-70
2023/06/02 10:13:48;;;;;;;77.70;2.50;;;24.90;24.10;;;;;;5023798;28;20429;-70
2023/06/02 10:16:34;;;;;;;78.10;2.50;;;25.00;22.80;;;;;;5032223;28;20400;-70
2023/06/02 10:19:21;;;;;;;77.57;2.33;;;23.60;24.30;;;;;;5032195;28;20793;-70
2023/06/02 10:21:59;;;;;;;82.57;2.90;;;23.60;26.00;;;;;;5032353;28;20453;-70
2023/06/02 10:24:38;;;;;;;80.80;2.70;;;23.80;25.30;;;;;;5031568;28;20420;-70
2023/06/02 10:27:31;;;;;;;76.97;2.50;;;23.50;26.00;;;;;;5032147;28;20402;-70
2023/06/02 10:29:57;;;;;;;77.63;2.60;;;24.00;25.10;;;;;;5032282;28;20847;-70
2023/06/02 10:32:23;;;;;;;77.97;2.60;;;23.70;25.50;;;;;;5032131;28;20758;-70
2023/06/02 10:34:50;;;;;;;78.00;2.80;;;24.60;24.60;;;;;;5031224;28;20411;-70
2023/06/02 10:37:17;;;;;;;77.60;2.80;;;24.70;23.30;;;;;;5032177;28;20411;-70
2023/06/02 10:39:43;;;;;;;77.83;2.80;;;23.90;24.60;;;;;;5031786;28;20458;-70
2023/06/02 10:42:10;;;;;;;77.90;2.40;;;24.20;24.80;;;;;;5032021;28;20415;-70
2023/06/02 10:44:36;;;;;;;77.40;2.40;;;24.70;22.90;;;;;;5031024;28;20639;-70
2023/06/02 10:47:20;;;;;;;77.37;2.47;;;25.10;22.50;;;;;;5031889;28;20449;-70
2023/06/02 10:49:51;;;;;;;76.90;2.53;;;25.60;21.90;;;;;;5031571;28;20249;-70
2023/06/02 10:52:17;;;;;;;77.33;2.20;;;24.50;23.00;;;;;;5030391;28;20922;-70
2023/06/02 10:54:42;;;;;;;76.93;2.53;;;25.30;23.30;;;;;;5031415;28;20422;-70
2023/06/02 10:57:09;;;;;;;76.73;2.13;;;25.90;22.60;;;;;;5031988;28;20172;-70
2023/06/02 10:59:36;;;;;;;76.50;2.50;;;26.40;22.40;;;;;;5031469;28;20192;-70
2023/06/02 11:02:03;;;;;;;76.47;2.50;;;26.60;22.00;;;;;;5031475;28;20415;-70
2023/06/02 11:04:35;;;;;;;78.77;2.67;;;26.30;21.20;;;;;;5030845;28;20469;-70
2023/06/02 11:07:26;;;;;;;77.57;2.40;;;24.90;22.40;;;;;;5030500;28;20493;-70
2023/06/02 11:09:59;;;;;;;75.77;2.07;;;25.00;22.80;;;;;;5031312;28;20458;-70
2023/06/02 11:12:50;;;;;;;78.80;2.90;;;24.30;23.20;;;;;;5031607;28;20506;-70
2023/06/02 11:15:16;;;;;;;75.60;2.00;;;24.70;22.50;;;;;;5030297;28;20506;-70
2023/06/02 11:17:44;;;;;;;75.70;2.30;;;25.30;22.60;;;;;;5031397;28;20403;-71
2023/06/02 11:20:10;;;;;;;77.00;2.93;;;24.70;22.50;;;;;;5031554;28;20409;-70
2023/06/02 11:22:36;;;;;;;78.70;2.70;;;24.40;22.80;;;;;;5030667;28;20490;-70
2023/06/02 11:25:03;;;;;;;81.60;3.03;;;24.30;22.30;;;;;;5031278;28;20420;-68
2023/06/02 11:27:43;;;;;;;75.00;2.43;;;23.90;23.40;;;;;;5031504;28;20469;-72
2023/06/02 11:30:11;;;;;;;74.80;2.30;;;24.10;23.20;;;;;;5031309;28;20451;-71
2023/06/02 11:32:37;;;;;;;75.53;2.70;;;25.50;24.10;;;;;;5031115;28;20422;-70
2023/06/02 11:35:05;;;;;;;74.97;2.30;;;27.60;20.90;;;;;;5030918;28;20434;-70
2023/06/02 11:37:31;;;;;;;74.87;2.10;;;29.60;18.30;;;;;;5031192;28;20169;-69
2023/06/02 11:39:57;;;;;;;75.67;2.20;;;30.50;15.70;;;;;;5031798;28;20411;-69
2023/06/02 11:42:34;;;;;;;75.17;2.40;;;30.00;15.90;;;;;;5031455;28;20914;-70
2023/06/02 11:44:59;;;;;;;75.20;2.47;;;31.00;16.10;;;;;;5031392;28;20183;-69
2023/06/02 11:47:25;;;;;;;74.53;2.30;;;32.00;14.50;;;;;;5031128;28;20411;-69
2023/06/02 11:49:51;;;;;;;74.50;2.20;;;32.40;13.60;;;;;;5031214;28;20638;-69
2023/06/02 11:52:16;;;;;;;73.80;2.40;;;32.20;12.70;;;;;;5031255;28;20177;-69
2023/06/02 11:54:54;;;;;;;73.20;2.13;;;32.70;12.90;;;;;;5030602;28;20256;-69
2023/06/02 11:57:33;;;;;;;73.17;1.97;;;32.70;13.40;;;;;;5031512;28;20169;-69
2023/06/02 12:00:26;;;;;;;72.23;2.00;;;33.60;12.10;;;;;;5031280;28;20415;-69
2023/06/02 12:02:57;;;;;;;72.00;1.93;;;34.50;10.90;;;;;;5030043;28;20434;-69
2023/06/02 12:05:30;;;;;;;72.60;2.37;;;34.40;10.80;;;;;;5031404;28;20398;-69
2023/06/02 12:08:06;;;;;;;71.30;2.17;;;35.00;10.30;;;;;;5031048;28;20497;-69
2023/06/02 12:10:32;;;;;;;70.17;2.17;;;33.50;10.40;;;;;;5031106;28;20446;-69
2023/06/02 12:12:57;;;;;;;69.47;2.07;;;31.60;13.00;;;;;;5030286;28;20844;-69
2023/06/02 12:15:31;;;;;;;70.10;2.43;;;31.40;14.20;;;;;;5031068;28;20507;-69
2023/06/02 12:17:57;;;;;;;69.57;1.80;;;32.90;13.00;;;;;;5031018;28;20192;-69
2023/06/02 12:20:34;;;;;;;69.47;2.03;;;33.80;11.40;;;;;;5031091;28;20774;-70
2023/06/02 12:22:59;;;;;;;69.90;2.33;;;34.90;9.80;;;;;;5030427;28;20165;-69
2023/06/02 12:25:25;;;;;;;68.70;1.93;;;33.20;10.40;;;;;;5033847;28;20411;-70
2023/06/02 12:27:50;;;;;;;68.50;2.40;;;32.90;12.40;;;;;;5034358;28;20594;-69
2023/06/02 12:30:16;;;;;;;67.63;2.00;;;32.40;11.40;;;;;;5034491;28;20223;-71
2023/06/02 12:32:42;;;;;;;67.23;2.10;;;32.60;12.80;;;;;;5034016;28;20567;-69
2023/06/02 12:35:08;;;;;;;67.67;2.37;;;33.60;11.30;;;;;;5034427;28;20330;-70
2023/06/02 12:37:34;;;;;;;66.97;2.00;;;34.70;10.60;;;;;;5034418;28;20878;-70